Time;durP1;ratioP1;P1;durP2;ratioP2;P2;SDS_P1;SDS_P2;PMS_P1;PMS_P2;Temp;Humidity;BMP_temperature;BMP_pressure;BME280_temperature;BME280_humidity;BME280_pressure;Samples;Min_cycle;Max_cycle;Signal;HPM_P1;HPM_P2
2024/01/26 00:00:41;;;;;;;;;2.00;2.00;;;;;19.05;52.38;101453.46;34547;1267;20928;-71
2024/01/26 00:01:48;;;;;;;;;2.00;1.00;;;;;19.06;52.23;101453.96;34601;1267;22367;-71
2024/01/26 00:02:36;;;;;;;;;1.00;1.00;;;;;19.05;52.38;101454.55;34556;1251;20680;-71
2024/01/26 00:03:23;;;;;;;;;1.00;1.00;;;;;19.04;52.33;101452.36;34632;1267;19553;-71
2024/01/26 00:04:11;;;;;;;;;1.00;1.00;;;;;19.04;52.33;101457.25;34556;1267;20888;-71
2024/01/26 00:04:58;;;;;;;;;1.00;1.00;;;;;19.05;52.44;101459.16;34555;1267;20746;-71
2024/01/26 00:05:45;;;;;;;;;1.00;1.00;;;;;19.04;52.33;101458.59;34522;1267;20910;-71
2024/01/26 00:06:33;;;;;;;;;1.00;1.00;;;;;19.04;52.43;101457.89;34587;1251;21491;-71
2024/01/26 00:07:20;;;;;;;;;1.00;1.00;;;;;19.03;52.31;101455.23;34532;1251;21825;-71
2024/01/26 00:08:08;;;;;;;;;1.00;1.00;;;;;19.03;52.27;101457.48;34576;1266;22038;-71
2024/01/26 00:08:55;;;;;;;;;1.00;1.00;;;;;19.03;52.41;101457.55;34547;1254;20875;-71
2024/01/26 00:09:43;;;;;;;;;2.00;2.00;;;;;19.02;52.38;101458.08;34607;1267;19483;-71
2024/01/26 00:10:30;;;;;;;;;1.00;1.00;;;;;19.02;52.40;101458.14;34543;1251;19861;-71
2024/01/26 00:11:18;;;;;;;;;1.00;1.00;;;;;19.02;52.43;101460.85;34591;1259;19423;-71
2024/01/26 00:12:05;;;;;;;;;1.00;1.00;;;;;19.02;52.40;101463.23;34558;1251;19298;-71
2024/01/26 00:12:53;;;;;;;;;1.00;1.00;;;;;19.02;52.61;101462.41;34601;1267;20691;-71
2024/01/26 00:13:40;;;;;;;;;2.00;2.00;;;;;19.02;52.80;101463.77;34554;1267;19421;-71
2024/01/26 00:14:27;;;;;;;;;1.00;1.00;;;;;19.01;52.39;101460.88;34562;1267;20773;-71
2024/01/26 00:15:15;;;;;;;;;1.00;1.00;;;;;19.01;52.53;101462.34;34576;1251;21800;-71
2024/01/26 00:16:02;;;;;;;;;1.00;1.00;;;;;19.00;52.22;101464.98;34530;1267;20681;-71
2024/01/26 00:16:50;;;;;;;;;1.00;1.00;;;;;19.00;52.57;101464.27;34575;1259;19356;-71
2024/01/26 00:17:37;;;;;;;;;1.00;1.00;;;;;19.00;52.33;101464.61;34533;1267;20931;-71
2024/01/26 00:18:24;;;;;;;;;1.00;1.00;;;;;19.00;52.21;101462.64;34607;1251;20778;-71
2024/01/26 00:19:12;;;;;;;;;1.00;1.00;;;;;19.00;52.31;101458.84;34543;1267;20652;-71
2024/01/26 00:20:00;;;;;;;;;1.00;1.00;;;;;19.00;52.40;101462.05;34591;1267;19332;-71
2024/01/26 00:20:47;;;;;;;;;1.00;1.00;;;;;19.00;52.33;101461.94;34533;1267;19332;-71
2024/01/26 00:21:35;;;;;;;;;1.00;1.00;;;;;19.00;52.39;101463.02;34565;1251;20747;-71
2024/01/26 00:22:22;;;;;;;;;1.00;1.00;;;;;18.99;51.94;101464.91;34540;1251;21056;-71
2024/01/26 00:23:10;;;;;;;;;1.00;1.00;;;;;18.99;52.65;101464.91;34565;1266;20579;-71
2024/01/26 00:23:57;;;;;;;;;1.00;1.00;;;;;19.00;52.92;101462.15;34561;1267;19357;-71
2024/01/26 00:24:44;;;;;;;;;1.00;1.00;;;;;18.99;52.61;101463.55;34597;1267;19311;-71
2024/01/26 00:25:32;;;;;;;;;1.00;1.00;;;;;18.99;52.66;101466.33;34549;1266;21415;-71
2024/01/26 00:26:20;;;;;;;;;1.00;1.00;;;;;19.01;52.33;101461.33;34616;1259;19517;-71
2024/01/26 00:27:07;;;;;;;;;2.00;1.00;;;;;19.03;52.27;101463.58;34551;1253;20682;-71
2024/01/26 00:27:55;;;;;;;;;1.00;1.00;;;;;19.02;52.55;101461.34;34583;1253;20814;-71
2024/01/26 00:28:42;;;;;;;;;1.00;1.00;;;;;19.01;52.74;101461.91;34553;1251;20692;-72
2024/01/26 00:29:29;;;;;;;;;1.00;1.00;;;;;19.01;52.61;101463.27;34587;1253;21037;-71
2024/01/26 00:30:17;;;;;;;;;1.00;1.00;;;;;19.00;52.62;101462.48;34569;1251;20767;-71
2024/01/26 00:31:05;;;;;;;;;1.00;1.00;;;;;18.99;52.69;101461.65;34589;1251;20670;-71
2024/01/26 00:31:52;;;;;;;;;1.00;1.00;;;;;18.99;52.58;101461.05;34587;1267;19386;-71
2024/01/26 00:32:39;;;;;;;;;1.00;1.00;;;;;18.98;52.50;101464.39;34601;1251;20729;-71
2024/01/26 00:33:27;;;;;;;;;1.00;1.00;;;;;18.97;52.46;101462.74;34575;1266;20925;-71
2024/01/26 00:34:14;;;;;;;;;1.00;1.00;;;;;18.97;52.33;101463.89;34608;1259;19527;-71
2024/01/26 00:35:02;;;;;;;;;1.00;1.00;;;;;18.97;52.43;101463.01;34564;1254;20857;-71
2024/01/26 00:35:49;;;;;;;;;1.00;1.00;;;;;18.97;52.33;101461.54;34595;1267;21164;-71
2024/01/26 00:36:37;;;;;;;;;1.00;1.00;;;;;18.97;52.55;101461.08;34554;1266;19343;-71
2024/01/26 00:37:24;;;;;;;;;1.00;1.00;;;;;18.98;52.45;101464.45;34626;1267;19505;-71
2024/01/26 00:38:14;;;;;;;;;1.00;1.00;;;;;18.97;52.51;101464.75;34545;1251;22000;-72
2024/01/26 00:39:01;;;;;;;;;2.00;1.00;;;;;18.97;52.32;101466.88;34538;1267;20607;-71
2024/01/26 00:39:49;;;;;;;;;1.00;1.00;;;;;18.97;52.13;101468.44;34627;1267;21089;-72
2024/01/26 00:40:36;;;;;;;;;2.00;1.00;;;;;18.97;52.60;101474.48;34565;1254;21715;-71
2024/01/26 00:41:24;;;;;;;;;2.00;2.00;;;;;18.97;52.62;101473.40;34625;1266;19736;-70
2024/01/26 00:42:11;;;;;;;;;1.00;1.00;;;;;18.97;52.37;101476.70;34526;1267;22068;-70
2024/01/26 00:42:59;;;;;;;;;1.00;1.00;;;;;18.97;52.55;101476.04;34546;1267;20701;-70
2024/01/26 00:43:46;;;;;;;;;2.00;1.00;;;;;18.96;52.37;101477.39;34540;1267;21010;-70
2024/01/26 00:44:33;;;;;;;;;1.00;1.00;;;;;18.96;52.08;101478.10;34538;1267;19431;-71
2024/01/26 00:45:21;;;;;;;;;1.00;1.00;;;;;18.96;52.17;101478.73;34531;1251;21840;-70
2024/01/26 00:46:08;;;;;;;;;1.00;1.00;;;;;18.95;52.38;101475.15;34555;1267;20893;-70
2024/01/26 00:46:56;;;;;;;;;1.00;1.00;;;;;18.96;52.65;101479.07;34549;1267;22005;-71
2024/01/26 00:47:44;;;;;;;;;2.00;1.50;;;;;18.95;52.07;101474.81;34543;1267;20697;-71
2024/01/26 00:48:31;;;;;;;;;1.50;1.50;;;;;18.96;52.58;101477.43;34521;1267;19564;-70
2024/01/26 00:49:19;;;;;;;;;1.00;1.00;;;;;18.96;52.26;101479.61;34569;1267;22179;-70
2024/01/26 00:50:06;;;;;;;;;1.33;1.00;;;;;18.95;52.21;101480.79;34545;1251;20701;-70
2024/01/26 00:50:54;;;;;;;;;1.00;1.00;;;;;18.95;52.04;101481.55;34534;1266;19378;-70
2024/01/26 00:51:42;;;;;;;;;1.33;1.00;;;;;18.95;51.98;101479.96;34580;1267;20841;-70
2024/01/26 00:52:29;;;;;;;;;1.00;1.00;;;;;18.95;52.16;101481.02;34630;1251;20758;-70
2024/01/26 00:53:17;;;;;;;;;1.00;1.00;;;;;18.96;51.70;101482.65;34556;1267;20586;-70
2024/01/26 00:54:04;;;;;;;;;1.00;1.00;;;;;18.99;51.48;101480.38;34613;1266;19360;-70
2024/01/26 00:54:52;;;;;;;;;2.00;1.00;;;;;19.02;51.24;101483.20;34577;1251;22226;-70
2024/01/26 00:55:39;;;;;;;;;1.00;1.00;;;;;19.04;51.12;101485.37;34635;1259;19723;-70
2024/01/26 00:56:27;;;;;;;;;1.00;1.00;;;;;19.04;50.84;101482.55;34587;1267;20922;-70
2024/01/26 00:57:14;;;;;;;;;1.00;1.00;;;;;19.05;50.66;101483.55;34602;1251;19428;-70
2024/01/26 00:58:02;;;;;;;;;1.00;1.00;;;;;19.08;50.65;101481.70;34524;1267;20704;-72
2024/01/26 00:58:49;;;;;;;;;1.00;1.00;;;;;19.09;50.71;101479.50;34529;1267;20679;-70
2024/01/26 00:59:37;;;;;;;;;1.00;1.00;;;;;19.11;50.53;101483.60;34538;1267;20699;-72
2024/01/26 01:00:24;;;;;;;;;1.00;1.00;;;;;19.12;50.66;101479.98;34554;1251;20635;-70
2024/01/26 01:01:11;;;;;;;;;1.00;1.00;;;;;19.14;50.55;101484.04;34543;1251;20751;-70
2024/01/26 01:01:59;;;;;;;;;1.00;1.00;;;;;19.14;50.55;101485.67;34545;1267;21837;-72
2024/01/26 01:02:46;;;;;;;;;1.00;1.00;;;;;19.14;50.45;101488.84;34537;1267;22106;-72
2024/01/26 01:03:35;;;;;;;;;1.00;1.00;;;;;19.15;50.35;101492.42;34573;1267;20954;-72
2024/01/26 01:04:22;;;;;;;;;1.00;1.00;;;;;19.14;50.43;101493.61;34582;1267;20517;-72
2024/01/26 01:05:09;;;;;;;;;1.00;1.00;;;;;19.13;50.44;101493.92;34533;1267;20833;-72
2024/01/26 01:05:57;;;;;;;;;1.33;1.33;;;;;19.14;50.47;101496.70;34553;1266;22753;-72
2024/01/26 01:06:44;;;;;;;;;1.00;1.00;;;;;19.14;50.37;101493.65;34529;1259;20958;-72
2024/01/26 01:07:32;;;;;;;;;1.00;1.00;;;;;19.14;50.27;101499.95;34533;1267;19359;-73
2024/01/26 01:08:19;;;;;;;;;2.00;2.00;;;;;19.13;50.47;101499.89;34552;1267;20782;-73
2024/01/26 01:09:07;;;;;;;;;1.00;1.00;;;;;19.13;50.32;101499.23;34541;1267;20651;-73
2024/01/26 01:09:54;;;;;;;;;1.00;1.00;;;;;19.12;50.37;101498.73;34571;1267;19298;-73
2024/01/26 01:10:41;;;;;;;;;1.67;1.67;;;;;19.13;50.27;101496.67;34551;1267;19208;-70
2024/01/26 01:11:29;;;;;;;;;1.00;1.00;;;;;19.13;50.17;101496.80;34578;1251;20731;-69
2024/01/26 01:12:16;;;;;;;;;1.00;1.00;;;;;19.12;50.17;101500.80;34555;1259;20693;-70
2024/01/26 01:13:05;;;;;;;;;1.00;1.00;;;;;19.12;50.26;101500.35;34576;1267;21036;-69
2024/01/26 01:13:52;;;;;;;;;2.33;1.67;;;;;19.10;50.15;101500.91;34577;1267;20642;-70
2024/01/26 01:14:40;;;;;;;;;1.00;1.00;;;;;19.09;50.27;101501.18;34547;1267;20660;-70
2024/01/26 01:15:29;;;;;;;;;1.00;1.00;;;;;19.09;50.09;101503.02;34598;1251;22037;-69
2024/01/26 01:16:17;;;;;;;;;1.00;1.00;;;;;19.08;50.09;101505.88;34549;1267;22235;-70
2024/01/26 01:17:05;;;;;;;;;1.00;1.00;;;;;19.08;49.98;101505.77;34551;1267;20996;-71
2024/01/26 01:17:52;;;;;;;;;1.00;1.00;;;;;19.07;50.10;101504.56;34602;1267;19347;-71
2024/01/26 01:18:40;;;;;;;;;1.00;1.00;;;;;19.07;50.17;101502.70;34557;1251;20980;-71
2024/01/26 01:19:27;;;;;;;;;1.00;1.00;;;;;19.05;50.21;101506.14;34581;1252;20666;-71
2024/01/26 01:20:15;;;;;;;;;1.00;1.00;;;;;19.05;50.08;101502.77;34538;1267;20763;-71
2024/01/26 01:21:02;;;;;;;;;1.00;1.00;;;;;19.05;50.18;101500.98;34573;1267;19500;-71
2024/01/26 01:21:50;;;;;;;;;1.00;1.00;;;;;19.04;50.07;101498.90;34551;1267;19336;-71
2024/01/26 01:22:37;;;;;;;;;1.00;1.00;;;;;19.04;50.34;101501.40;34578;1267;20633;-71
2024/01/26 01:23:25;;;;;;;;;1.00;1.00;;;;;19.03;50.22;101503.55;34559;1266;19332;-71
2024/01/26 01:24:13;;;;;;;;;2.00;2.00;;;;;19.02;50.47;101501.69;34562;1267;19656;-71
2024/01/26 01:25:00;;;;;;;;;1.00;1.00;;;;;19.02;50.52;101502.66;34535;1267;19339;-71
2024/01/26 01:25:48;;;;;;;;;1.00;1.00;;;;;19.04;50.57;101503.71;34571;1252;20739;-71
2024/01/26 01:26:35;;;;;;;;;1.50;1.50;;;;;19.03;50.72;101503.39;34538;1251;20762;-71
2024/01/26 01:27:22;;;;;;;;;1.00;1.00;;;;;19.02;50.84;101506.46;34559;1267;20707;-71
2024/01/26 01:28:10;;;;;;;;;1.00;1.00;;;;;19.01;50.94;101506.27;34542;1267;20730;-71
2024/01/26 01:28:57;;;;;;;;;1.00;1.00;;;;;19.01;50.72;101508.66;34572;1267;19435;-71
2024/01/26 01:29:45;;;;;;;;;1.00;1.00;;;;;19.01;50.83;101504.27;34535;1267;20734;-71
2024/01/26 01:30:32;;;;;;;;;1.00;1.00;;;;;19.02;50.86;101505.80;34556;1251;20722;-71
2024/01/26 01:31:20;;;;;;;;;1.00;1.00;;;;;19.02;50.85;101507.00;34565;1259;19539;-71
2024/01/26 01:32:07;;;;;;;;;1.00;1.00;;;;;19.01;50.92;101505.73;34512;1267;19387;-71
2024/01/26 01:32:55;;;;;;;;;1.00;1.00;;;;;19.00;51.13;101504.79;34556;1267;20703;-71
2024/01/26 01:33:42;;;;;;;;;1.00;1.00;;;;;19.00;51.10;101505.92;34520;1267;20660;-71
2024/01/26 01:34:29;;;;;;;;;2.00;2.00;;;;;19.00;51.28;101507.55;34558;1267;19639;-71
2024/01/26 01:35:17;;;;;;;;;1.00;1.00;;;;;19.00;51.13;101506.79;34513;1253;22253;-71
2024/01/26 01:36:05;;;;;;;;;2.00;2.00;;;;;19.00;51.24;101504.13;34560;1268;19366;-71
2024/01/26 01:36:52;;;;;;;;;1.00;1.00;;;;;18.99;51.42;101504.02;34538;1251;20953;-71
2024/01/26 01:37:40;;;;;;;;;1.00;1.00;;;;;18.99;51.14;101502.80;34558;1267;19356;-71
2024/01/26 01:38:27;;;;;;;;;1.00;1.00;;;;;19.00;51.24;101506.13;34557;1267;20643;-71
2024/01/26 01:39:15;;;;;;;;;1.00;1.00;;;;;18.99;51.25;101503.73;34555;1267;20791;-71
2024/01/26 01:40:02;;;;;;;;;1.00;1.00;;;;;18.99;51.22;101506.39;34520;1251;20619;-71
2024/01/26 01:40:50;;;;;;;;;1.00;1.00;;;;;19.00;51.16;101505.98;34575;1251;20922;-71
2024/01/26 01:41:37;;;;;;;;;1.00;1.00;;;;;19.00;51.29;101505.92;34522;1252;20758;-71
2024/01/26 01:42:25;;;;;;;;;1.00;1.00;;;;;18.99;51.14;101508.52;34576;1251;19246;-71
2024/01/26 01:43:12;;;;;;;;;1.00;1.00;;;;;18.99;51.08;101505.69;34531;1266;19509;-71
2024/01/26 01:43:59;;;;;;;;;1.00;1.00;;;;;18.99;51.26;101507.65;34571;1267;19977;-71
2024/01/26 01:44:47;;;;;;;;;1.00;1.00;;;;;18.99;51.22;101507.70;34532;1266;21380;-71
2024/01/26 01:45:34;;;;;;;;;1.00;1.00;;;;;18.99;51.38;101504.93;34588;1251;20960;-71
2024/01/26 01:46:22;;;;;;;;;1.00;1.00;;;;;18.98;51.17;101508.83;34537;1259;20668;-71
2024/01/26 01:47:09;;;;;;;;;1.00;1.00;;;;;18.99;51.24;101510.24;34551;1261;20779;-71
2024/01/26 01:47:57;;;;;;;;;1.00;1.00;;;;;18.98;51.14;101510.77;34527;1267;19466;-71
2024/01/26 01:48:44;;;;;;;;;1.00;1.00;;;;;18.98;51.37;101515.65;34587;1266;19716;-71
2024/01/26 01:49:32;;;;;;;;;1.50;1.00;;;;;18.98;51.33;101515.28;34520;1267;20636;-71
2024/01/26 01:50:19;;;;;;;;;2.00;1.00;;;;;18.97;51.37;101513.95;34586;1251;20631;-71
2024/01/26 01:51:06;;;;;;;;;1.00;1.00;;;;;18.97;51.33;101516.33;34535;1266;21841;-71
2024/01/26 01:51:54;;;;;;;;;1.00;1.00;;;;;18.96;51.40;101519.70;34566;1267;19574;-71
2024/01/26 01:52:42;;;;;;;;;1.00;1.00;;;;;18.96;51.46;101518.48;34533;1259;20881;-72
2024/01/26 01:53:29;;;;;;;;;2.00;1.00;;;;;18.96;51.59;101519.52;34614;1251;20964;-71
2024/01/26 01:54:16;;;;;;;;;1.00;1.00;;;;;18.97;51.37;101522.90;34547;1259;19329;-71
2024/01/26 01:55:04;;;;;;;;;2.00;1.00;;;;;18.97;51.50;101523.56;34576;1259;20675;-71
2024/01/26 01:55:51;;;;;;;;;1.33;1.33;;;;;18.97;51.35;101524.65;34535;1259;20650;-71
2024/01/26 01:56:40;;;;;;;;;1.00;1.00;;;;;18.97;51.20;101528.45;34593;1251;21005;-71
2024/01/26 01:57:27;;;;;;;;;1.00;1.00;;;;;18.97;51.37;101526.48;34531;1267;20730;-71
2024/01/26 01:58:14;;;;;;;;;2.00;2.00;;;;;18.97;51.07;101527.58;34571;1266;19384;-71
2024/01/26 01:59:02;;;;;;;;;1.00;1.00;;;;;18.97;51.37;101526.70;34535;1267;19373;-70
2024/01/26 01:59:49;;;;;;;;;2.00;1.00;;;;;18.97;51.32;101526.06;34572;1266;19595;-70
2024/01/26 02:00:37;;;;;;;;;1.50;1.00;;;;;18.97;51.17;101527.15;34521;1266;19713;-71
2024/01/26 02:01:25;;;;;;;;;1.00;1.00;;;;;18.97;51.35;101530.67;34610;1266;19365;-70
2024/01/26 02:02:12;;;;;;;;;1.00;1.00;;;;;18.96;51.56;101530.01;34525;1267;19356;-71
2024/01/26 02:03:00;;;;;;;;;1.67;1.00;;;;;18.96;51.41;101532.39;34563;1266;19321;-71
2024/01/26 02:03:47;;;;;;;;;1.00;1.00;;;;;18.95;51.55;101530.91;34533;1266;20867;-71
2024/01/26 02:04:35;;;;;;;;;1.00;1.00;;;;;18.96;51.41;101529.94;34557;1266;19553;-71
2024/01/26 02:05:22;;;;;;;;;2.00;2.00;;;;;18.95;51.52;101529.66;34525;1267;19342;-71
2024/01/26 02:06:10;;;;;;;;;1.00;1.00;;;;;18.96;51.82;101527.39;34589;1266;19232;-71
2024/01/26 02:06:57;;;;;;;;;1.00;1.00;;;;;18.95;51.65;101528.41;34541;1266;20734;-71
2024/01/26 02:07:45;;;;;;;;;1.00;1.00;;;;;18.95;51.51;101529.54;34563;1251;20775;-71
2024/01/26 02:08:32;;;;;;;;;1.00;1.00;;;;;18.95;51.93;101533.08;34536;1259;20843;-71
2024/01/26 02:09:20;;;;;;;;;1.00;1.00;;;;;18.95;51.70;101532.59;34590;1267;19380;-71
2024/01/26 02:10:09;;;;;;;;;2.00;1.00;;;;;18.95;51.34;101536.98;34540;1267;20655;-71
2024/01/26 02:10:57;;;;;;;;;1.00;1.00;;;;;18.94;51.70;101539.36;34537;1267;19704;-71
2024/01/26 02:11:44;;;;;;;;;1.00;1.00;;;;;18.94;51.36;101536.54;34583;1251;21974;-71
2024/01/26 02:12:32;;;;;;;;;1.00;1.00;;;;;18.95;51.66;101538.23;34529;1266;19289;-71
2024/01/26 02:13:19;;;;;;;;;1.00;1.00;;;;;18.94;51.47;101537.02;34608;1266;20680;-71
2024/01/26 02:14:06;;;;;;;;;1.00;1.00;;;;;18.95;51.54;101535.89;34550;1251;20753;-71
2024/01/26 02:14:54;;;;;;;;;1.00;1.00;;;;;18.94;51.29;101535.07;34580;1266;20732;-71
2024/01/26 02:15:41;;;;;;;;;1.00;1.00;;;;;18.93;51.28;101536.46;34547;1251;20738;-72
2024/01/26 02:16:29;;;;;;;;;1.00;1.00;;;;;18.94;51.28;101538.05;34593;1266;19601;-72
2024/01/26 02:17:16;;;;;;;;;1.00;1.00;;;;;18.94;51.18;101534.45;34555;1266;19354;-72
2024/01/26 02:18:03;;;;;;;;;1.00;1.00;;;;;18.94;51.43;101536.70;34589;1266;20704;-72
2024/01/26 02:18:51;;;;;;;;;1.00;1.00;;;;;18.93;51.13;101537.01;34561;1266;19757;-72
2024/01/26 02:19:38;;;;;;;;;1.00;1.00;;;;;18.93;51.28;101535.26;34550;1259;20642;-72
2024/01/26 02:20:26;;;;;;;;;1.00;1.00;;;;;18.93;51.30;101533.95;34554;1266;19368;-72
2024/01/26 02:21:13;;;;;;;;;1.00;1.00;;;;;18.93;51.02;101536.77;34548;1251;22357;-72
2024/01/26 02:22:01;;;;;;;;;1.00;1.00;;;;;18.92;51.10;101534.27;34566;1253;20664;-72
2024/01/26 02:22:48;;;;;;;;;2.00;2.00;;;;;18.93;50.89;101540.64;34521;1267;20665;-72
2024/01/26 02:23:41;;;;;;;;;1.00;1.00;;;;;18.95;50.68;101539.27;34571;1251;21014;-72
2024/01/26 02:24:29;;;;;;;;;2.00;2.00;;;;;18.98;50.44;101543.34;34577;1266;19522;-72
2024/01/26 02:25:16;;;;;;;;;1.33;1.33;;;;;18.99;50.22;101543.32;34539;1266;19623;-72
2024/01/26 02:26:04;;;;;;;;;1.00;1.00;;;;;19.01;49.96;101541.20;34566;1264;20817;-72
2024/01/26 02:26:52;;;;;;;;;1.00;1.00;;;;;19.02;49.98;101544.80;34558;1267;19319;-72
2024/01/26 02:27:39;;;;;;;;;1.25;1.25;;;;;19.05;49.84;101543.29;34600;1259;22041;-71
2024/01/26 02:28:27;;;;;;;;;1.00;1.00;;;;;19.06;49.81;101542.44;34544;1251;20944;-72
2024/01/26 02:29:14;;;;;;;;;1.00;1.00;;;;;19.07;49.75;101540.23;34582;1260;19384;-72
2024/01/26 02:30:01;;;;;;;;;1.00;1.00;;;;;19.08;49.51;101538.30;34547;1251;20676;-72
2024/01/26 02:30:49;;;;;;;;;1.50;1.00;;;;;19.08;49.57;101538.79;34602;1266;19555;-72
2024/01/26 02:31:36;;;;;;;;;1.00;1.00;;;;;19.10;49.38;101536.55;34552;1267;19732;-72
2024/01/26 02:32:24;;;;;;;;;1.00;1.00;;;;;19.10;49.45;101540.19;34577;1267;19486;-72
2024/01/26 02:33:11;;;;;;;;;1.00;1.00;;;;;19.10;49.44;101544.73;34528;1266;19341;-72
2024/01/26 02:33:59;;;;;;;;;1.50;1.50;;;;;19.10;49.33;101539.47;34537;1260;22143;-72
2024/01/26 02:34:46;;;;;;;;;1.00;1.00;;;;;19.10;49.40;101542.14;34539;1251;20844;-72
2024/01/26 02:35:33;;;;;;;;;1.00;1.00;;;;;19.11;49.14;101542.75;34525;1267;22195;-72
2024/01/26 02:36:21;;;;;;;;;1.00;1.00;;;;;19.10;49.38;101544.36;34554;1266;19308;-72
2024/01/26 02:37:10;;;;;;;;;1.00;1.00;;;;;19.11;49.17;101546.98;34515;1267;21828;-72
2024/01/26 02:37:57;;;;;;;;;1.00;1.00;;;;;19.09;49.21;101549.14;34543;1266;20563;-72
2024/01/26 02:38:45;;;;;;;;;2.00;2.00;;;;;19.08;49.18;101553.08;34586;1266;19393;-72
2024/01/26 02:39:33;;;;;;;;;1.00;1.00;;;;;19.09;49.24;101550.69;34554;1267;20912;-72
2024/01/26 02:40:20;;;;;;;;;1.00;1.00;;;;;19.08;49.11;101550.58;34549;1266;20845;-72
2024/01/26 02:41:08;;;;;;;;;1.00;1.00;;;;;19.08;49.10;101553.29;34534;1267;20700;-72
2024/01/26 02:41:55;;;;;;;;;1.00;1.00;;;;;19.07;49.24;101547.13;34573;1251;19342;-72
2024/01/26 02:42:43;;;;;;;;;1.00;1.00;;;;;19.06;49.21;101551.08;34546;1251;20742;-72
2024/01/26 02:43:30;;;;;;;;;1.00;1.00;;;;;19.06;49.22;101554.00;34571;1267;20705;-72
2024/01/26 02:44:17;;;;;;;;;1.00;1.00;;;;;19.06;49.07;101554.50;34542;1266;19354;-72
2024/01/26 02:45:05;;;;;;;;;1.50;1.50;;;;;19.06;48.94;101559.27;34564;1266;20681;-72
2024/01/26 02:45:52;;;;;;;;;1.00;1.00;;;;;19.06;49.08;101554.42;34562;1251;19556;-73
2024/01/26 02:46:40;;;;;;;;;1.00;1.00;;;;;19.05;48.89;101550.56;34559;1266;20702;-72
2024/01/26 02:47:27;;;;;;;;;1.00;1.00;;;;;19.05;48.99;101553.81;34553;1260;19345;-72
2024/01/26 02:48:14;;;;;;;;;1.00;1.00;;;;;19.04;49.00;101549.23;34566;1266;20804;-72
2024/01/26 02:49:03;;;;;;;;;1.00;1.00;;;;;19.03;48.92;101548.46;34571;1266;19413;-72
2024/01/26 02:49:50;;;;;;;;;1.00;1.00;;;;;19.03;48.96;101547.54;34558;1266;19785;-72
2024/01/26 02:50:38;;;;;;;;;1.00;1.00;;;;;19.03;48.98;101546.45;34540;1267;20735;-72
2024/01/26 02:51:25;;;;;;;;;1.00;1.00;;;;;19.02;49.00;101544.97;34563;1266;21890;-72
2024/01/26 02:52:12;;;;;;;;;2.00;1.00;;;;;19.02;49.12;101544.35;34556;1266;20645;-73
2024/01/26 02:53:00;;;;;;;;;1.00;1.00;;;;;19.00;48.96;101542.92;34572;1259;20727;-73
2024/01/26 02:53:47;;;;;;;;;1.00;1.00;;;;;18.99;49.04;101548.21;34549;1251;19560;-72
2024/01/26 02:54:35;;;;;;;;;1.00;1.00;;;;;18.99;49.50;101548.64;34554;1266;19328;-72
2024/01/26 02:55:22;;;;;;;;;2.00;2.00;;;;;18.99;49.58;101547.55;34553;1266;20800;-72
2024/01/26 02:56:10;;;;;;;;;1.00;1.00;;;;;18.99;49.50;101548.63;34551;1267;20848;-72
2024/01/26 02:56:58;;;;;;;;;1.00;1.00;;;;;18.99;49.62;101550.97;34567;1251;20750;-72
2024/01/26 02:57:46;;;;;;;;;1.00;1.00;;;;;18.98;49.65;101548.11;34543;1267;20696;-72
2024/01/26 02:58:33;;;;;;;;;1.00;1.00;;;;;18.97;49.97;101547.51;34527;1254;20682;-72
2024/01/26 02:59:21;;;;;;;;;1.00;1.00;;;;;18.97;49.78;101548.55;34555;1266;20717;-72
2024/01/26 03:00:09;;;;;;;;;1.00;1.00;;;;;18.96;49.76;101550.48;34539;1252;20731;-72
2024/01/26 03:00:56;;;;;;;;;1.00;1.00;;;;;18.96;49.76;101549.06;34552;1251;20996;-72
2024/01/26 03:01:43;;;;;;;;;1.00;1.00;;;;;18.95;50.10;101549.32;34534;1266;19414;-71
2024/01/26 03:02:31;;;;;;;;;1.00;1.00;;;;;18.95;49.92;101552.14;34530;1267;21796;-72
2024/01/26 03:03:18;;;;;;;;;1.67;1.00;;;;;18.95;49.98;101552.08;34541;1251;22144;-72
2024/01/26 03:04:06;;;;;;;;;1.00;1.00;;;;;18.96;50.12;101551.98;34541;1267;20825;-72
2024/01/26 03:04:53;;;;;;;;;2.00;1.00;;;;;18.96;49.95;101551.40;34527;1254;20726;-72
2024/01/26 03:05:41;;;;;;;;;1.00;1.00;;;;;18.96;49.76;101552.27;34553;1267;20710;-72
2024/01/26 03:06:29;;;;;;;;;1.00;1.00;;;;;18.96;50.12;101553.41;34543;1266;19529;-72
2024/01/26 03:07:16;;;;;;;;;1.00;1.00;;;;;18.95;50.18;101557.02;34538;1266;19536;-72
2024/01/26 03:08:03;;;;;;;;;1.00;1.00;;;;;18.94;49.98;101560.75;34532;1267;19331;-72
2024/01/26 03:08:51;;;;;;;;;1.00;1.00;;;;;18.95;50.30;101558.53;34562;1267;19332;-71
2024/01/26 03:09:38;;;;;;;;;1.00;1.00;;;;;18.95;50.25;101560.87;34550;1267;19243;-71
2024/01/26 03:10:26;;;;;;;;;2.00;2.00;;;;;18.94;50.28;101557.91;34549;1266;20744;-71
2024/01/26 03:11:13;;;;;;;;;1.00;1.00;;;;;18.94;50.43;101560.69;34549;1251;19560;-71
2024/01/26 03:12:01;;;;;;;;;2.00;2.00;;;;;18.94;50.44;101560.64;34541;1266;20843;-71
2024/01/26 03:12:48;;;;;;;;;1.00;1.00;;;;;18.94;50.43;101561.23;34553;1251;20778;-72
2024/01/26 03:13:35;;;;;;;;;1.00;1.00;;;;;18.93;50.33;101558.23;34531;1266;19318;-72
2024/01/26 03:14:23;;;;;;;;;1.00;1.00;;;;;18.93;50.47;101560.73;34538;1267;19326;-73
2024/01/26 03:15:10;;;;;;;;;1.00;1.00;;;;;18.93;50.38;101555.34;34529;1267;19343;-73
2024/01/26 03:15:58;;;;;;;;;1.50;1.00;;;;;18.94;50.07;101564.01;34545;1266;19392;-73
2024/01/26 03:16:45;;;;;;;;;1.00;1.00;;;;;18.95;50.10;101561.95;34520;1252;19358;-73
2024/01/26 03:17:33;;;;;;;;;1.00;1.00;;;;;18.95;49.97;101562.61;34547;1267;20584;-73
2024/01/26 03:18:20;;;;;;;;;1.00;1.00;;;;;18.95;50.22;101562.11;34535;1268;20774;-73
2024/01/26 03:19:08;;;;;;;;;1.00;1.00;;;;;18.94;50.29;101564.72;34547;1253;20998;-72
2024/01/26 03:19:55;;;;;;;;;1.00;1.00;;;;;18.94;50.35;101563.14;34534;1268;19479;-72
2024/01/26 03:20:43;;;;;;;;;1.00;1.00;;;;;18.93;50.22;101564.86;34563;1252;19369;-73
2024/01/26 03:21:30;;;;;;;;;1.00;1.00;;;;;18.94;50.23;101566.77;34541;1268;19367;-72
2024/01/26 03:22:18;;;;;;;;;1.00;1.00;;;;;18.94;50.27;101566.77;34551;1252;20731;-72
2024/01/26 03:23:05;;;;;;;;;1.00;1.00;;;;;18.93;50.32;101567.41;34534;1268;20699;-72
2024/01/26 03:23:53;;;;;;;;;1.00;1.00;;;;;18.94;50.12;101567.73;34549;1268;19368;-72
2024/01/26 03:24:40;;;;;;;;;1.00;1.00;;;;;18.94;50.28;101567.32;34543;1268;21748;-72
2024/01/26 03:25:27;;;;;;;;;1.50;1.50;;;;;18.94;50.13;101568.98;34555;1268;20602;-71
2024/01/26 03:26:15;;;;;;;;;1.00;1.00;;;;;18.93;50.25;101572.72;34535;1267;20648;-71
2024/01/26 03:27:02;;;;;;;;;1.00;1.00;;;;;18.93;50.27;101573.80;34569;1268;21004;-71
2024/01/26 03:27:50;;;;;;;;;1.00;1.00;;;;;18.93;50.12;101571.27;34546;1268;19489;-71
2024/01/26 03:28:38;;;;;;;;;2.00;2.00;;;;;18.94;50.35;101573.55;34528;1252;20691;-71
2024/01/26 03:29:25;;;;;;;;;1.00;1.00;;;;;18.93;50.46;101575.77;34548;1268;20700;-71
2024/01/26 03:30:13;;;;;;;;;2.00;2.00;;;;;18.93;50.31;101574.40;34555;1268;21295;-71
2024/01/26 03:31:00;;;;;;;;;1.00;1.00;;;;;18.92;50.45;101576.45;34542;1268;20783;-71
2024/01/26 03:31:47;;;;;;;;;1.00;1.00;;;;;18.93;50.54;101575.70;34547;1252;20843;-71
2024/01/26 03:32:35;;;;;;;;;1.00;1.00;;;;;18.92;50.21;101570.14;34533;1268;20739;-72
2024/01/26 03:33:22;;;;;;;;;1.00;1.00;;;;;18.92;50.51;101572.54;34556;1268;20838;-71
2024/01/26 03:34:10;;;;;;;;;1.67;1.67;;;;;18.91;50.31;101573.72;34566;1268;19299;-71
2024/01/26 03:34:57;;;;;;;;;1.00;1.00;;;;;18.90;50.04;101569.73;34550;1268;19498;-71
2024/01/26 03:35:45;;;;;;;;;2.00;2.00;;;;;18.91;50.57;101569.63;34564;1268;21036;-71
2024/01/26 03:36:32;;;;;;;;;1.00;1.00;;;;;18.91;50.33;101572.18;34550;1260;19779;-71
2024/01/26 03:37:20;;;;;;;;;1.00;1.00;;;;;18.90;50.43;101570.81;34548;1268;20502;-71
2024/01/26 03:38:07;;;;;;;;;1.00;1.00;;;;;18.90;50.10;101573.36;34546;1268;20713;-71
2024/01/26 03:38:54;;;;;;;;;1.00;1.00;;;;;18.91;50.23;101571.85;34527;1268;19348;-71
2024/01/26 03:39:42;;;;;;;;;1.00;1.00;;;;;18.91;50.21;101573.98;34523;1268;20609;-72
2024/01/26 03:40:29;;;;;;;;;1.67;1.67;;;;;18.90;50.20;101573.20;34521;1268;20688;-71
2024/01/26 03:41:17;;;;;;;;;2.00;2.00;;;;;18.90;50.15;101575.20;34522;1268;19302;-71